Time;durP1;ratioP1;P1;durP2;ratioP2;P2;SDS_P1;SDS_P2;PMS_P1;PMS_P2;Temp;Humidity;BMP_temperature;BMP_pressure;BME280_temperature;BME280_humidity;BME280_pressure;Samples;Min_cycle;Max_cycle;Signal;HPM_P1;HPM_P2
2023/12/27 00:01:45;;;;;;;5.85;4.03;;;;;;;-142.91;100.00;56616.03;5076006;28;20284;-73
2023/12/27 00:04:12;;;;;;;8.30;4.20;;;;;;;-142.91;100.00;56616.03;5077780;28;20202;-73
2023/12/27 00:06:38;;;;;;;5.35;3.55;;;;;;;-142.91;100.00;56616.03;5076390;28;20303;-74
2023/12/27 00:09:06;;;;;;;9.15;3.80;;;;;;;-142.91;100.00;56616.03;5080684;28;20242;-74
2023/12/27 00:11:33;;;;;;;8.50;3.97;;;;;;;-142.91;100.00;56616.03;5079513;28;20202;-73
2023/12/27 00:14:01;;;;;;;6.45;3.28;;;;;;;-142.91;100.00;56616.03;5076414;28;20759;-73
2023/12/27 00:16:27;;;;;;;6.07;3.70;;;;;;;-142.91;100.00;56616.03;5073806;28;20293;-73
2023/12/27 00:18:54;;;;;;;4.82;3.63;;;;;;;-142.91;100.00;56616.03;5077029;28;20286;-73
2023/12/27 00:21:21;;;;;;;12.98;6.68;;;;;;;-142.91;100.00;56616.03;5075410;28;20299;-76
2023/12/27 00:23:47;;;;;;;5.65;4.35;;;;;;;-142.91;100.00;56616.03;5081573;28;20233;-73
2023/12/27 00:26:14;;;;;;;6.50;4.32;;;;;;;-142.91;100.00;56616.03;5077019;28;20309;-72
2023/12/27 00:28:41;;;;;;;5.60;3.78;;;;;;;-142.91;100.00;56616.03;5074051;28;20234;-73
2023/12/27 00:31:09;;;;;;;8.02;4.28;;;;;;;-142.91;100.00;56616.03;5080284;28;20230;-74
2023/12/27 00:33:36;;;;;;;5.55;4.18;;;;;;;-142.91;100.00;56616.03;5075231;28;20308;-73
2023/12/27 00:36:04;;;;;;;7.57;4.57;;;;;;;-142.91;100.00;56616.03;5078143;28;20233;-73
2023/12/27 00:38:30;;;;;;;9.32;4.88;;;;;;;-142.91;100.00;56616.03;5076826;28;20687;-72
2023/12/27 00:40:57;;;;;;;4.90;3.55;;;;;;;-142.91;100.00;56616.03;5077626;28;20293;-72
2023/12/27 00:43:23;;;;;;;7.63;4.40;;;;;;;-142.91;100.00;56616.03;5072864;28;20241;-73
2023/12/27 00:45:50;;;;;;;5.40;3.72;;;;;;;;;;5074461;28;20301;-76
2023/12/27 00:48:18;;;;;;;6.63;4.30;;;;;;;-142.91;100.00;56616.03;5076180;28;20289;-76
2023/12/27 00:50:44;;;;;;;5.72;4.03;;;;;;;-142.91;100.00;56616.03;5076772;28;20320;-75
2023/12/27 00:53:11;;;;;;;5.97;4.25;;;;;;;-142.91;100.00;56616.03;5071395;28;20198;-72
2023/12/27 00:55:38;;;;;;;6.97;4.10;;;;;;;-142.91;100.00;56616.03;5075907;28;20289;-74
2023/12/27 00:58:04;;;;;;;8.68;4.03;;;;;;;-142.91;100.00;56616.03;5081189;28;20293;-73
2023/12/27 01:00:31;;;;;;;8.15;4.80;;;;;;;-142.91;100.00;56616.03;5078795;28;20284;-73
2023/12/27 01:02:58;;;;;;;6.00;4.43;;;;;;;-142.91;100.00;56616.03;5076695;28;20301;-73
2023/12/27 01:05:26;;;;;;;4.25;3.83;;;;;;;-142.91;100.00;56616.03;5067179;28;20320;-73
2023/12/27 01:07:53;;;;;;;5.97;3.88;;;;;;;-142.91;100.00;56616.03;5070300;28;20297;-73
2023/12/27 01:10:19;;;;;;;5.10;3.45;;;;;;;-142.91;100.00;56616.03;5077310;28;20366;-73
2023/12/27 01:12:46;;;;;;;9.43;4.65;;;;;;;-142.91;100.00;56616.03;5076972;28;20684;-72
2023/12/27 01:15:13;;;;;;;6.65;4.25;;;;;;;-142.91;100.00;56616.03;5075921;28;20289;-73
2023/12/27 01:17:40;;;;;;;3.80;3.40;;;;;;;-142.91;100.00;56616.03;5072470;28;20191;-73
2023/12/27 01:20:08;;;;;;;9.50;4.60;;;;;;;-142.91;100.00;56616.03;5076416;28;20751;-73
2023/12/27 01:22:36;;;;;;;9.85;3.72;;;;;;;-142.91;100.00;56616.03;5075260;28;20238;-73
2023/12/27 01:25:03;;;;;;;5.38;3.55;;;;;;;-142.91;100.00;56616.03;5076212;28;20317;-73
2023/12/27 01:27:29;;;;;;;5.57;3.97;;;;;;;-142.91;100.00;56616.03;5073778;28;20355;-74
2023/12/27 01:29:56;;;;;;;8.52;4.15;;;;;;;-142.91;100.00;56616.03;5076124;28;20734;-74
2023/12/27 01:32:22;;;;;;;8.38;3.90;;;;;;;-142.91;100.00;56616.03;5076821;28;20881;-74
2023/12/27 01:34:49;;;;;;;3.50;3.08;;;;;;;-142.91;100.00;56616.03;5073591;28;20653;-75
2023/12/27 01:37:16;;;;;;;5.45;3.72;;;;;;;-142.91;100.00;56616.03;5074827;28;20197;-73
2023/12/27 01:39:44;;;;;;;7.05;4.00;;;;;;;-142.91;100.00;56616.03;5074541;28;20670;-73
2023/12/27 01:42:10;;;;;;;6.25;3.75;;;;;;;-142.91;100.00;56616.03;5079431;28;20229;-74
2023/12/27 01:44:37;;;;;;;5.75;4.00;;;;;;;-142.91;100.00;56616.03;5076719;28;20285;-73
2023/12/27 01:47:04;;;;;;;6.40;4.07;;;;;;;-142.91;100.00;56616.03;5060471;28;20664;-73
2023/12/27 01:49:31;;;;;;;4.88;3.88;;;;;;;23.25;100.00;56616.03;5061833;28;20214;-76
2023/12/27 01:51:58;;;;;;;8.93;4.43;;;;;;;-142.91;100.00;56616.03;5048562;28;20297;-75
2023/12/27 01:54:25;;;;;;;12.45;4.45;;;;;;;-142.91;100.00;56616.03;5068066;28;20299;-73
2023/12/27 01:56:53;;;;;;;6.22;3.78;;;;;;;-142.91;100.00;56616.03;5071560;28;20632;-73
2023/12/27 01:59:20;;;;;;;7.25;4.43;;;;;;;-142.91;100.00;56616.03;5070447;28;20252;-75
2023/12/27 02:01:46;;;;;;;5.95;3.97;;;;;;;-142.91;100.00;56616.03;5069463;28;20206;-74
2023/12/27 02:04:13;;;;;;;9.05;4.10;;;;;;;-142.91;100.00;56616.03;5072525;28;20197;-74
2023/12/27 02:06:40;;;;;;;7.57;4.03;;;;;;;-142.91;100.00;56616.03;5070130;28;20315;-74
2023/12/27 02:09:07;;;;;;;9.43;3.60;;;;;;;-142.91;100.00;56616.03;5061112;28;20197;-74
2023/12/27 02:11:34;;;;;;;5.13;3.72;;;;;;;-142.91;100.00;56616.03;5078860;28;20301;-74
2023/12/27 02:14:02;;;;;;;6.13;3.83;;;;;;;-142.91;100.00;56616.03;5079187;28;20226;-72
2023/12/27 02:16:28;;;;;;;7.18;4.30;;;;;;;-142.91;100.00;56616.03;5071836;28;20278;-74
2023/12/27 02:18:55;;;;;;;8.18;4.22;;;;;;;-142.91;100.00;56616.03;5073645;28;20214;-76
2023/12/27 02:21:23;;;;;;;9.70;4.20;;;;;;;-142.91;100.00;56616.03;5073750;28;20298;-74
2023/12/27 02:23:55;;;;;;;5.63;3.72;;;;;;;-142.91;100.00;56616.03;5068490;28;20420;-74
2023/12/27 02:26:23;;;;;;;5.70;4.45;;;;;;;-142.91;100.00;56616.03;5070577;28;20254;-74
2023/12/27 02:28:50;;;;;;;5.30;4.28;;;;;;;;;;5071367;28;20290;-74
2023/12/27 02:31:16;;;;;;;7.53;4.25;;;;;;;-142.91;100.00;56616.03;5071123;28;20268;-74
2023/12/27 02:33:44;;;;;;;6.22;3.78;;;;;;;-142.91;100.00;56616.03;5072519;28;20292;-74
2023/12/27 02:36:11;;;;;;;5.13;4.20;;;;;;;-142.91;100.00;56616.03;5070931;28;20203;-73
2023/12/27 02:38:37;;;;;;;8.63;4.03;;;;;;;-142.91;100.00;56616.03;5070606;28;20233;-74
2023/12/27 02:41:04;;;;;;;9.93;4.45;;;;;;;-142.91;100.00;56616.03;5073024;28;20657;-74
2023/12/27 02:43:32;;;;;;;9.75;4.32;;;;;;;-142.91;100.00;56616.03;5069801;28;20586;-74
2023/12/27 02:45:59;;;;;;;11.70;4.57;;;;;;;-142.91;100.00;56616.03;5074203;28;20276;-74
2023/12/27 02:48:25;;;;;;;5.70;3.65;;;;;;;;;;5072491;28;20377;-73
2023/12/27 02:50:53;;;;;;;6.15;3.72;;;;;;;-142.91;100.00;56616.03;5068246;28;20202;-74
2023/12/27 02:53:19;;;;;;;11.65;4.07;;;;;;;-142.91;100.00;56616.03;5072644;28;20202;-72
2023/12/27 02:55:46;;;;;;;6.45;3.92;;;;;;;-142.91;100.00;56616.03;5070261;28;20222;-72
2023/12/27 02:58:14;;;;;;;7.85;3.83;;;;;;;-142.91;100.00;56616.03;5069918;28;20230;-72
2023/12/27 03:00:42;;;;;;;7.13;3.97;;;;;;;-142.91;100.00;56616.03;5074432;28;20709;-72
2023/12/27 03:03:10;;;;;;;13.20;3.53;;;;;;;-142.91;100.00;56616.03;5076293;28;21439;-73
2023/12/27 03:05:37;;;;;;;8.10;4.60;;;;;;;-142.91;100.00;56616.03;5074228;28;20198;-72
2023/12/27 03:08:04;;;;;;;9.10;3.67;;;;;;;-142.91;100.00;56616.03;5076806;28;20308;-72
2023/12/27 03:10:31;;;;;;;5.28;3.75;;;;;;;-142.91;100.00;56616.03;5078161;28;20200;-72
2023/12/27 03:12:57;;;;;;;7.85;4.28;;;;;;;;;;5075520;28;20336;-73
2023/12/27 03:15:24;;;;;;;7.68;4.18;;;;;;;-142.91;100.00;56616.03;5073895;28;20233;-72
2023/12/27 03:17:52;;;;;;;9.15;3.55;;;;;;;-142.91;100.00;56616.03;5075359;28;20758;-73
2023/12/27 03:20:18;;;;;;;9.75;4.70;;;;;;;;;;5073362;28;20289;-72
2023/12/27 03:22:45;;;;;;;5.53;3.58;;;;;;;-142.91;100.00;56616.03;5077767;28;20248;-72
2023/12/27 03:25:11;;;;;;;12.13;4.07;;;;;;;-142.91;100.00;56616.03;5071862;28;21047;-73
2023/12/27 03:27:39;;;;;;;8.98;3.83;;;;;;;-142.91;100.00;56616.03;5079541;28;20221;-72
2023/12/27 03:30:07;;;;;;;4.57;4.13;;;;;;;-142.91;100.00;56616.03;5078412;28;20675;-72
2023/12/27 03:32:33;;;;;;;8.80;3.92;;;;;;;-142.91;100.00;56616.03;5077381;28;20225;-73
2023/12/27 03:35:02;;;;;;;9.35;4.32;;;;;;;-142.91;100.00;56616.03;5070495;28;20664;-72
2023/12/27 03:37:29;;;;;;;8.70;4.18;;;;;;;-142.91;100.00;56616.03;5070620;28;20291;-73
2023/12/27 03:39:55;;;;;;;10.52;4.75;;;;;;;-142.91;100.00;56616.03;5072916;28;20714;-73
2023/12/27 03:42:22;;;;;;;11.02;4.68;;;;;;;-142.91;100.00;56616.03;5075262;28;20281;-73
2023/12/27 03:44:52;;;;;;;11.20;4.53;;;;;;;-142.91;100.00;56616.03;5072918;28;20293;-72
2023/12/27 03:47:19;;;;;;;7.45;3.97;;;;;;;-142.91;100.00;56616.03;5077387;28;20220;-73
2023/12/27 03:49:46;;;;;;;12.00;3.90;;;;;;;-142.91;100.00;56616.03;5078153;28;20288;-73
2023/12/27 03:52:14;;;;;;;6.15;4.25;;;;;;;-142.91;100.00;56616.03;5075979;28;20222;-73
2023/12/27 03:54:41;;;;;;;7.28;4.32;;;;;;;-142.91;100.00;56616.03;5073660;28;20300;-73
2023/12/27 03:57:08;;;;;;;5.32;4.50;;;;;;;-142.91;100.00;56616.03;5074227;28;20294;-73
2023/12/27 03:59:37;;;;;;;6.53;4.90;;;;;;;-142.91;100.00;56616.03;5075797;28;20669;-73
2023/12/27 04:02:04;;;;;;;5.40;4.57;;;;;;;-142.91;100.00;56616.03;5077831;28;20208;-73
2023/12/27 04:04:30;;;;;;;10.02;4.53;;;;;;;;;;5072956;28;20226;-73
2023/12/27 04:06:57;;;;;;;7.00;4.20;;;;;;;-142.91;100.00;56616.03;5074893;28;20214;-73
2023/12/27 04:09:25;;;;;;;22.98;5.18;;;;;;;-142.91;100.00;56616.03;5072022;28;20289;-72
2023/12/27 04:11:51;;;;;;;11.20;4.03;;;;;;;;;;5073007;28;20202;-72
2023/12/27 04:14:18;;;;;;;6.65;3.90;;;;;;;-142.91;100.00;56616.03;5075348;28;20690;-72
2023/12/27 04:16:45;;;;;;;6.35;4.20;;;;;;;-142.91;100.00;56616.03;5074030;28;20277;-73
2023/12/27 04:19:12;;;;;;;9.55;4.18;;;;;;;-142.91;100.00;56616.03;5072803;28;20631;-72
2023/12/27 04:21:41;;;;;;;7.28;4.05;;;;;;;-142.91;100.00;56616.03;5071506;28;20286;-72
2023/12/27 04:24:08;;;;;;;7.95;4.53;;;;;;;;;;5069463;28;20802;-72
2023/12/27 04:26:38;;;;;;;6.93;4.00;;;;;;;-142.91;100.00;56616.03;5073919;28;20205;-73
2023/12/27 04:29:06;;;;;;;9.13;4.47;;;;;;;-142.91;100.00;56616.03;5070884;28;20297;-73
2023/12/27 04:31:33;;;;;;;10.15;4.13;;;;;;;-142.91;100.00;56616.03;5072787;28;20285;-73
2023/12/27 04:34:00;;;;;;;9.95;4.82;;;;;;;-142.91;100.00;56616.03;5070662;28;20294;-73
2023/12/27 04:36:26;;;;;;;8.77;4.90;;;;;;;-142.91;100.00;56616.03;5070679;28;20214;-72
2023/12/27 04:38:53;;;;;;;9.45;4.30;;;;;;;-142.91;100.00;56616.03;5078529;28;20638;-72
2023/12/27 04:41:20;;;;;;;6.60;4.20;;;;;;;-142.91;100.00;56616.03;5075900;28;20226;-73
2023/12/27 04:43:48;;;;;;;8.23;4.13;;;;;;;-142.91;100.00;56616.03;5080858;28;20288;-73
2023/12/27 04:46:14;;;;;;;8.40;4.47;;;;;;;-142.91;100.00;56616.03;5073200;28;20282;-73
2023/12/27 04:48:41;;;;;;;9.15;4.47;;;;;;;-142.91;100.00;56616.03;5077864;28;20692;-73
2023/12/27 04:51:08;;;;;;;8.55;5.30;;;;;;;-142.91;100.00;56616.03;5070398;28;20289;-72
2023/12/27 04:53:34;;;;;;;9.82;4.60;;;;;;;-142.91;100.00;56616.03;5082859;28;20202;-72
2023/12/27 04:56:01;;;;;;;13.30;4.72;;;;;;;-142.91;100.00;56616.03;5083824;28;20228;-71
2023/12/27 04:58:28;;;;;;;7.40;3.80;;;;;;;-142.91;100.00;56616.03;5068939;28;20747;-73
2023/12/27 05:00:56;;;;;;;7.78;4.68;;;;;;;-142.91;100.00;56616.03;5074097;28;20297;-73
2023/12/27 05:03:22;;;;;;;11.82;4.25;;;;;;;-142.91;100.00;56616.03;5072972;28;20244;-72
2023/12/27 05:05:49;;;;;;;11.73;4.50;;;;;;;-142.91;100.00;56616.03;5073260;28;20257;-73
2023/12/27 05:08:15;;;;;;;12.55;4.03;;;;;;;-142.91;100.00;56616.03;5071322;28;20245;-72
2023/12/27 05:10:42;;;;;;;5.70;4.18;;;;;;;-142.91;100.00;56616.03;5074325;28;20301;-73
2023/12/27 05:13:09;;;;;;;7.95;4.68;;;;;;;-142.91;100.00;56616.03;5070724;28;20255;-73
2023/12/27 05:15:35;;;;;;;7.78;5.10;;;;;;;-142.91;100.00;56616.03;5074462;28;20233;-73
2023/12/27 05:18:04;;;;;;;8.95;4.22;;;;;;;-142.91;100.00;56616.03;5074122;28;20281;-73
2023/12/27 05:20:31;;;;;;;8.13;4.43;;;;;;;-142.91;100.00;56616.03;5074053;28;20663;-72
2023/12/27 05:22:58;;;;;;;10.52;5.45;;;;;;;-142.91;100.00;56616.03;5077825;28;20199;-72
2023/12/27 05:25:24;;;;;;;6.45;4.55;;;;;;;-142.91;100.00;56616.03;5074857;28;20260;-72
2023/12/27 05:27:51;;;;;;;11.63;4.53;;;;;;;-142.91;100.00;56616.03;5072877;28;20215;-73
2023/12/27 05:30:18;;;;;;;11.18;4.93;;;;;;;-142.91;100.00;56616.03;5072033;28;20242;-72
2023/12/27 05:32:44;;;;;;;7.78;4.47;;;;;;;-142.91;100.00;56616.03;5074333;28;20307;-74
2023/12/27 05:35:12;;;;;;;7.43;4.30;;;;;;;-142.91;100.00;56616.03;5072804;28;20202;-72
2023/12/27 05:37:39;;;;;;;4.45;4.05;;;;;;;-142.91;100.00;56616.03;5075443;28;20280;-72
2023/12/27 05:40:07;;;;;;;9.73;4.47;;;;;;;-142.91;100.00;56616.03;5070622;28;20230;-72
2023/12/27 05:42:34;;;;;;;6.60;4.53;;;;;;;-142.91;100.00;56616.03;5074310;28;20232;-72
2023/12/27 05:45:01;;;;;;;9.57;4.95;;;;;;;-142.91;100.00;56616.03;5070422;28;20288;-72
2023/12/27 05:47:28;;;;;;;7.95;4.45;;;;;;;-142.91;100.00;56616.03;5072239;28;20304;-72
2023/12/27 05:49:54;;;;;;;5.20;3.80;;;;;;;-142.91;100.00;56616.03;5075729;28;20500;-73
2023/12/27 05:52:22;;;;;;;7.20;4.50;;;;;;;-142.91;100.00;56616.03;5070205;28;20650;-72
2023/12/27 05:54:49;;;;;;;9.52;5.05;;;;;;;-142.91;100.00;56616.03;5075556;28;20292;-72
2023/12/27 05:57:15;;;;;;;13.52;6.82;;;;;;;-142.91;100.00;56616.03;5071198;28;20229;-72
2023/12/27 05:59:42;;;;;;;8.52;5.72;;;;;;;;;;5074051;28;20237;-73
2023/12/27 06:02:09;;;;;;;9.45;4.55;;;;;;;-142.91;100.00;56616.03;5069259;28;20295;-74
2023/12/27 06:04:35;;;;;;;10.05;5.43;;;;;;;-142.91;100.00;56616.03;5073446;28;20256;-72
2023/12/27 06:07:02;;;;;;;8.10;4.97;;;;;;;-142.91;100.00;56616.03;5061373;28;20234;-72
2023/12/27 06:09:31;;;;;;;9.20;5.07;;;;;;;-142.91;100.00;56616.03;5072087;28;20210;-72
2023/12/27 06:11:58;;;;;;;14.02;5.45;;;;;;;-142.91;100.00;56616.03;5071487;28;20199;-73
2023/12/27 06:14:24;;;;;;;12.32;5.22;;;;;;;-142.91;100.00;56616.03;5069126;28;20237;-73
2023/12/27 06:16:52;;;;;;;5.57;5.13;;;;;;;-142.91;100.00;56616.03;5074964;28;20284;-73
2023/12/27 06:19:19;;;;;;;7.25;4.25;;;;;;;-142.91;100.00;56616.03;5075470;28;20247;-72
2023/12/27 06:21:45;;;;;;;4.85;4.35;;;;;;;-142.91;100.00;56616.03;5073050;28;20281;-73
2023/12/27 06:24:12;;;;;;;10.32;4.80;;;;;;;;;;5081870;28;20336;-73
2023/12/27 06:26:40;;;;;;;9.60;5.22;;;;;;;-142.91;100.00;56616.03;5078372;28;20660;-73
2023/12/27 06:29:06;;;;;;;12.52;7.18;;;;;;;;;;5077365;28;20214;-73
2023/12/27 06:31:34;;;;;;;16.27;8.55;;;;;;;-142.91;100.00;56616.03;5074537;28;20313;-73
2023/12/27 06:34:01;;;;;;;11.38;7.30;;;;;;;;;;5068805;28;20289;-72
2023/12/27 06:36:28;;;;;;;16.75;8.32;;;;;;;-142.91;100.00;56616.03;5072028;28;20294;-72
2023/12/27 06:38:54;;;;;;;16.02;8.88;;;;;;;;;;5073769;28;20275;-73
2023/12/27 06:41:21;;;;;;;12.27;7.72;;;;;;;-142.91;100.00;56616.03;5078174;28;20289;-73
2023/12/27 06:43:49;;;;;;;21.15;8.65;;;;;;;-142.91;100.00;56616.03;5081247;28;20655;-72
2023/12/27 06:46:16;;;;;;;15.77;8.25;;;;;;;-142.91;100.00;56616.03;5074771;28;20330;-72
2023/12/27 06:48:42;;;;;;;18.42;9.02;;;;;;;-142.91;100.00;56616.03;5075249;28;20228;-72
2023/12/27 06:51:13;;;;;;;12.13;8.77;;;;;;;-142.91;100.00;56616.03;5078657;28;20289;-73
2023/12/27 06:53:40;;;;;;;11.52;8.65;;;;;;;-142.91;100.00;56616.03;5075308;28;20200;-73
2023/12/27 06:56:07;;;;;;;12.55;7.00;;;;;;;-142.91;100.00;56616.03;5076560;28;20289;-72
2023/12/27 06:58:33;;;;;;;9.00;7.25;;;;;;;-142.91;100.00;56616.03;5075622;28;20240;-73
2023/12/27 07:01:01;;;;;;;15.38;7.47;;;;;;;-142.91;100.00;56616.03;5082058;28;20234;-73
2023/12/27 07:03:28;;;;;;;10.68;6.18;;;;;;;-142.91;100.00;56616.03;5076549;28;20289;-73
2023/12/27 07:05:54;;;;;;;14.90;6.63;;;;;;;;;;5079541;28;20248;-73
2023/12/27 07:08:21;;;;;;;7.63;6.30;;;;;;;-142.91;100.00;56616.03;5077826;28;20698;-72
2023/12/27 07:10:48;;;;;;;14.95;7.05;;;;;;;-142.91;100.00;56616.03;5075719;28;20237;-74
2023/12/27 07:13:15;;;;;;;12.23;6.13;;;;;;;23.25;100.00;56616.03;5076257;28;20233;-74
2023/12/27 07:15:41;;;;;;;6.82;5.88;;;;;;;-142.91;100.00;56616.03;5072839;28;20237;-74
2023/12/27 07:18:09;;;;;;;10.38;5.75;;;;;;;;;;5077306;28;20198;-74
2023/12/27 07:20:36;;;;;;;8.18;5.38;;;;;;;-142.91;100.00;56616.03;5081084;28;20202;-74
2023/12/27 07:23:03;;;;;;;13.27;7.93;;;;;;;-142.91;100.00;56616.03;5075612;28;20240;-74
2023/12/27 07:25:29;;;;;;;15.43;7.93;;;;;;;-142.91;100.00;56616.03;5057098;28;20294;-74
2023/12/27 07:27:56;;;;;;;8.98;5.75;;;;;;;-142.91;100.00;56616.03;5054585;28;22292;-75
2023/12/27 07:30:23;;;;;;;10.10;5.85;;;;;;;-142.91;100.00;56616.03;5064444;28;20194;-74
2023/12/27 07:32:49;;;;;;;7.03;6.22;;;;;;;-142.91;100.00;56616.03;5055876;28;20309;-74
2023/12/27 07:35:17;;;;;;;7.63;5.15;;;;;;;;;;5055983;28;20690;-74
2023/12/27 07:37:46;;;;;;;46.40;23.20;;;;;;;23.26;100.00;56616.03;5057985;28;20285;-75
2023/12/27 07:40:13;;;;;;;9.05;6.60;;;;;;;23.25;100.00;56616.03;5059216;28;20272;-74
2023/12/27 07:42:40;;;;;;;9.02;5.93;;;;;;;23.25;100.00;56616.03;5059889;28;20198;-75
2023/12/27 07:45:07;;;;;;;11.70;7.32;;;;;;;;;;5064125;28;20218;-75
2023/12/27 07:47:33;;;;;;;19.77;10.20;;;;;;;-142.91;100.00;56616.03;5060949;28;20291;-75
2023/12/27 07:50:00;;;;;;;8.98;6.28;;;;;;;-142.91;100.00;56616.03;5060267;28;20412;-75
2023/12/27 07:52:28;;;;;;;11.70;7.18;;;;;;;-142.91;100.00;56616.03;5055479;28;20238;-75
2023/12/27 07:54:56;;;;;;;15.13;8.63;;;;;;;-142.91;100.00;56616.03;5056152;28;20203;-74
2023/12/27 07:57:23;;;;;;;8.07;5.82;;;;;;;23.26;100.00;56616.03;5052978;28;20202;-75
2023/12/27 07:59:55;;;;;;;13.15;7.90;;;;;;;23.25;100.00;56616.03;5038672;28;20191;-74
2023/12/27 08:02:22;;;;;;;10.07;5.68;;;;;;;23.25;100.00;56616.03;5059868;28;20586;-74
2023/12/27 08:04:48;;;;;;;13.70;9.60;;;;;;;23.25;100.00;56616.03;5055834;28;20756;-74
2023/12/27 08:07:15;;;;;;;7.88;5.65;;;;;;;23.25;100.00;56616.03;5055867;28;20241;-73
2023/12/27 08:09:43;;;;;;;7.10;4.95;;;;;;;23.25;100.00;56616.03;5055694;28;20774;-74
2023/12/27 08:12:09;;;;;;;8.43;5.53;;;;;;;23.25;100.00;56616.03;5057247;28;20287;-74
2023/12/27 08:14:36;;;;;;;8.75;4.45;;;;;;;23.26;100.00;56616.03;5055798;28;20737;-75
2023/12/27 08:17:03;;;;;;;7.35;5.32;;;;;;;23.25;100.00;56616.03;5055654;28;20190;-75
2023/12/27 08:19:31;;;;;;;8.18;5.10;;;;;;;23.25;100.00;56616.03;5058135;28;20286;-74
2023/12/27 08:21:57;;;;;;;9.20;5.43;;;;;;;;;;5054064;28;22299;-75
2023/12/27 08:24:25;;;;;;;5.38;4.72;;;;;;;23.25;100.00;56616.03;5065935;28;20226;-74
2023/12/27 08:26:53;;;;;;;12.65;5.53;;;;;;;;;;5073107;28;20198;-75
2023/12/27 08:29:20;;;;;;;8.98;4.97;;;;;;;23.25;100.00;56616.03;5074795;28;20222;-75
2023/12/27 08:31:47;;;;;;;9.45;7.00;;;;;;;;;;5077832;28;20271;-74
2023/12/27 08:34:14;;;;;;;10.50;5.55;;;;;;;23.25;100.00;56616.03;5059301;28;20200;-75
2023/12/27 08:36:45;;;;;;;10.55;6.85;;;;;;;;;;5077190;28;20221;-75
2023/12/27 08:39:13;;;;;;;8.55;5.80;;;;;;;-142.91;100.00;56616.03;5075417;28;20196;-75
2023/12/27 08:41:40;;;;;;;8.93;5.75;;;;;;;;;;5074801;28;20202;-75
2023/12/27 08:44:08;;;;;;;6.70;5.53;;;;;;;-142.91;100.00;56616.03;5075676;28;20281;-74
2023/12/27 08:46:34;;;;;;;8.48;5.30;;;;;;;23.25;100.00;56616.03;5072252;28;20293;-74
2023/12/27 08:49:01;;;;;;;6.93;4.93;;;;;;;;;;5073063;28;20309;-74
2023/12/27 08:51:29;;;;;;;5.15;4.07;;;;;;;23.25;100.00;56616.03;5072397;28;20210;-75
2023/12/27 08:53:55;;;;;;;6.47;5.00;;;;;;;;;;5072842;28;21035;-75
2023/12/27 08:56:22;;;;;;;7.97;4.72;;;;;;;-142.91;100.00;56616.03;5072985;28;20198;-77
2023/12/27 08:58:49;;;;;;;52.13;25.85;;;;;;;-142.91;100.00;56616.03;5073825;28;20221;-75
2023/12/27 09:01:17;;;;;;;6.20;4.80;;;;;;;;;;5067482;28;20210;-75
2023/12/27 09:03:43;;;;;;;7.82;4.20;;;;;;;23.25;100.00;56616.03;5062363;28;20595;-76
2023/12/27 09:06:10;;;;;;;8.15;4.50;;;;;;;;;;5081797;28;20352;-77
2023/12/27 09:08:36;;;;;;;7.38;4.38;;;;;;;;;;5073833;28;20218;-76
2023/12/27 09:11:03;;;;;;;10.45;4.13;;;;;;;;;;5076043;28;20675;-75
2023/12/27 09:13:30;;;;;;;4.20;3.80;;;;;;;;;;5077630;28;20714;-74
2023/12/27 09:15:56;;;;;;;4.90;4.35;;;;;;;;;;5069024;28;20193;-72
2023/12/27 09:18:25;;;;;;;6.10;4.07;;;;;;;;;;5066610;28;20226;-72
2023/12/27 09:20:51;;;;;;;8.90;4.25;;;;;;;;;;5073701;28;20195;-73
2023/12/27 09:23:18;;;;;;;7.45;3.78;;;;;;;23.25;100.00;56616.03;5075484;28;20288;-73
2023/12/27 09:25:45;;;;;;;5.55;4.13;;;;;;;;;;5076203;28;20280;-73
2023/12/27 09:28:11;;;;;;;5.43;4.43;;;;;;;;;;5078811;28;20210;-72
2023/12/27 09:30:38;;;;;;;8.60;4.18;;;;;;;;;;5073812;28;20664;-73
2023/12/27 09:33:05;;;;;;;6.35;4.18;;;;;;;;;;5076638;28;20214;-73
2023/12/27 09:35:33;;;;;;;5.13;3.88;;;;;;;;;;5080893;28;20280;-73
2023/12/27 09:37:59;;;;;;;8.07;3.95;;;;;;;;;;5077903;28;20289;-72
2023/12/27 09:40:25;;;;;;;7.43;4.43;;;;;;;;;;5077103;28;20285;-73
2023/12/27 09:42:53;;;;;;;7.80;4.03;;;;;;;;;;5077808;28;20278;-73
2023/12/27 09:45:21;;;;;;;5.95;3.10;;;;;;;;;;5073646;28;20293;-72
2023/12/27 09:47:49;;;;;;;3.65;3.35;;;;;;;;;;5076369;28;20245;-73
2023/12/27 09:50:15;;;;;;;6.05;4.07;;;;;;;;;;5068336;28;20273;-73
2023/12/27 09:52:43;;;;;;;6.07;4.18;;;;;;;;;;5076270;28;20289;-71
2023/12/27 09:55:09;;;;;;;16.38;9.93;;;;;;;;;;5078629;28;20284;-71
2023/12/27 09:57:36;;;;;;;6.40;3.45;;;;;;;;;;5079217;28;20233;-73
2023/12/27 10:00:05;;;;;;;18.27;10.98;;;;;;;;;;5079814;28;20285;-73
2023/12/27 10:02:34;;;;;;;12.93;10.13;;;;;;;;;;5074605;28;20201;-70
2023/12/27 10:05:06;;;;;;;4.35;3.60;;;;;;;;;;5071328;28;20297;-71
2023/12/27 10:07:38;;;;;;;8.35;4.07;;;;;;;;;;5074886;28;20198;-72
2023/12/27 10:10:07;;;;;;;6.03;3.90;;;;;;;;;;5060687;28;20233;-72
2023/12/27 10:12:33;;;;;;;9.90;3.70;;;;;;;;;;5070878;28;20233;-72
2023/12/27 10:14:59;;;;;;;6.30;4.78;;;;;;;;;;5068510;28;20729;-73
2023/12/27 10:17:27;;;;;;;5.63;3.88;;;;;;;23.25;100.00;56616.03;5051802;28;20289;-72
2023/12/27 10:19:53;;;;;;;8.05;4.25;;;;;;;;;;5076332;28;20289;-72
2023/12/27 10:22:20;;;;;;;5.50;3.67;;;;;;;;;;5074576;28;20293;-72
2023/12/27 10:24:46;;;;;;;5.15;3.35;;;;;;;;;;5070483;28;20308;-72
2023/12/27 10:27:14;;;;;;;9.45;6.43;;;;;;;;;;5070140;28;20290;-74
2023/12/27 10:29:46;;;;;;;4.03;3.30;;;;;;;;;;5072615;28;20309;-72
2023/12/27 10:32:12;;;;;;;4.15;3.50;;;;;;;23.25;100.00;56616.03;5072096;28;20311;-72
2023/12/27 10:34:39;;;;;;;6.20;3.15;;;;;;;;;;5069917;28;20293;-73
2023/12/27 10:37:11;;;;;;;5.05;3.38;;;;;;;;;;5068639;28;20288;-72
2023/12/27 10:39:38;;;;;;;5.45;3.22;;;;;;;;;;5075656;28;20210;-72
2023/12/27 10:42:07;;;;;;;4.28;3.75;;;;;;;23.25;100.00;56616.03;5068540;28;20682;-73
2023/12/27 10:44:35;;;;;;;14.70;9.55;;;;;;;;;;5054175;28;20209;-73
2023/12/27 10:47:04;;;;;;;6.50;5.78;;;;;;;;;;5069363;28;20734;-73
2023/12/27 10:49:31;;;;;;;4.88;4.03;;;;;;;;;;5073511;28;20317;-75
2023/12/27 10:51:58;;;;;;;7.78;4.00;;;;;;;;;;5069984;28;20682;-73
2023/12/27 10:54:25;;;;;;;4.32;2.97;;;;;;;;;;5073307;28;20653;-72
2023/12/27 10:56:54;;;;;;;3.65;3.35;;;;;;;23.26;100.00;56616.03;5052992;28;20501;-72
2023/12/27 10:59:21;;;;;;;3.88;3.53;;;;;;;;;;5060015;28;20290;-73
2023/12/27 11:01:50;;;;;;;4.22;3.00;;;;;;;;;;5076057;28;20328;-73
2023/12/27 11:04:18;;;;;;;15.93;3.80;;;;;;;;;;5069531;28;20244;-72
2023/12/27 11:06:46;;;;;;;3.80;3.40;;;;;;;;;;5070355;28;20305;-73
2023/12/27 11:09:13;;;;;;;6.45;3.20;;;;;;;;;;5061807;28;20226;-74
2023/12/27 11:11:40;;;;;;;4.75;3.60;;;;;;;;;;5059663;28;20210;-75
2023/12/27 11:14:07;;;;;;;4.47;3.38;;;;;;;;;;5069773;28;20286;-72
2023/12/27 11:16:34;;;;;;;5.95;3.03;;;;;;;;;;5052210;28;20297;-75
2023/12/27 11:19:05;;;;;;;3.58;2.70;;;;;;;;;;5054035;28;20351;-74
2023/12/27 11:21:32;;;;;;;7.70;3.15;;;;;;;;;;5072241;28;20209;-75
2023/12/27 11:23:58;;;;;;;5.97;3.63;;;;;;;;;;5068894;28;20697;-73
2023/12/27 11:26:25;;;;;;;3.50;3.08;;;;;;;;;;5071550;28;20238;-72
2023/12/27 11:28:51;;;;;;;5.97;3.92;;;;;;;;;;5059039;28;20248;-73
2023/12/27 11:31:19;;;;;;;4.68;4.25;;;;;;;23.29;100.00;56616.03;5050753;28;20300;-74
2023/12/27 11:33:46;;;;;;;9.88;4.07;;;;;;;;;;5051506;28;20212;-73
2023/12/27 11:36:17;;;;;;;6.97;3.55;;;;;;;-142.91;100.00;56616.03;5052136;28;20267;-73
2023/12/27 11:38:46;;;;;;;3.75;3.10;;;;;;;;;;5057875;28;20202;-78
2023/12/27 11:41:12;;;;;;;8.25;4.13;;;;;;;23.25;100.00;56616.03;5054717;28;20369;-78
2023/12/27 11:43:52;;;;;;;6.45;3.95;;;;;;;-142.91;100.00;56616.03;5056042;28;20338;-77
2023/12/27 11:46:26;;;;;;;6.05;3.72;;;;;;;23.25;100.00;56616.03;5066609;28;20194;-78
2023/12/27 11:48:53;;;;;;;5.88;2.97;;;;;;;-142.91;100.00;56616.03;5067680;28;20743;-76
2023/12/27 11:51:32;;;;;;;5.65;3.17;;;;;;;-142.91;100.00;56616.03;5070400;28;20281;-78
2023/12/27 11:53:59;;;;;;;3.08;2.88;;;;;;;-142.91;100.00;56616.03;5074261;28;20197;-82
2023/12/27 11:56:29;;;;;;;7.50;3.38;;;;;;;24.55;100.00;56616.03;5070777;28;20961;-76